Time;durP1;ratioP1;P1;durP2;ratioP2;P2;SDS_P1;SDS_P2;PMS_P1;PMS_P2;Temp;Humidity;BMP_temperature;BMP_pressure;BME280_temperature;BME280_humidity;BME280_pressure;Samples;Min_cycle;Max_cycle;Signal;HPM_P1;HPM_P2
2024/01/17 04:05:31;;;;;;;5.80;4.90;;;19.70;20.00;;;;;;5001926;28;44907;-43
2024/01/17 04:07:56;;;;;;;7.53;5.07;;;19.70;19.90;;;;;;5012726;28;45523;-45
2024/01/17 04:10:22;;;;;;;6.90;5.17;;;19.70;20.00;;;;;;5004756;28;46174;-43
2024/01/17 04:12:48;;;;;;;7.13;4.87;;;19.70;20.00;;;;;;5020721;28;45955;-43
2024/01/17 04:15:14;;;;;;;6.28;4.68;;;19.70;20.00;;;;;;5002980;28;45285;-41
2024/01/17 04:17:39;;;;;;;7.20;5.30;;;19.70;20.00;;;;;;5009562;28;45395;-42
2024/01/17 04:20:05;;;;;;;6.68;4.75;;;19.70;20.00;;;;;;5009989;28;45553;-42
2024/01/17 04:22:31;;;;;;;8.77;5.13;;;19.70;20.00;;;;;;4979700;28;45571;-42
2024/01/17 04:24:57;;;;;;;9.55;5.20;;;19.70;20.00;;;;;;4950400;28;45283;-42
2024/01/17 04:27:22;;;;;;;7.57;5.20;;;19.70;19.90;;;;;;5012201;28;45891;-43
2024/01/17 04:29:48;;;;;;;7.27;4.97;;;19.70;20.00;;;;;;5021431;28;45731;-41
2024/01/17 04:32:14;;;;;;;7.50;5.30;;;19.70;19.90;;;;;;4992013;28;45325;-42
2024/01/17 04:34:40;;;;;;;6.50;4.63;;;19.70;19.90;;;;;;5018883;28;45937;-44
2024/01/17 04:37:05;;;;;;;6.70;4.87;;;19.70;19.90;;;;;;5002629;28;45932;-41
2024/01/17 04:39:31;;;;;;;6.43;4.83;;;19.70;20.00;;;;;;5000359;28;45750;-41
2024/01/17 04:41:58;;;;;;;6.97;5.00;;;19.80;19.90;;;;;;4985897;28;47582;-41
2024/01/17 04:44:24;;;;;;;5.47;4.40;;;19.80;19.90;;;;;;5017761;28;45330;-41
2024/01/17 04:46:50;;;;;;;7.25;4.82;;;19.80;19.90;;;;;;4980490;28;45491;-43
2024/01/17 04:49:15;;;;;;;6.93;4.88;;;19.80;19.90;;;;;;4961062;28;46520;-42
2024/01/17 04:51:42;;;;;;;6.10;4.68;;;19.80;19.90;;;;;;5008743;28;46167;-42
2024/01/17 04:54:08;;;;;;;6.18;4.47;;;19.80;19.90;;;;;;5013668;28;45549;-42
2024/01/17 04:56:34;;;;;;;7.00;4.68;;;19.90;20.00;;;;;;5000964;28;45607;-41
2024/01/17 04:58:59;;;;;;;7.00;4.70;;;19.90;20.00;;;;;;5011168;28;46400;-42
2024/01/17 05:01:25;;;;;;;6.57;4.70;;;19.90;20.00;;;;;;4995353;28;45540;-42
2024/01/17 05:03:51;;;;;;;7.60;5.07;;;19.90;20.00;;;;;;5011677;28;45702;-41
2024/01/17 05:06:16;;;;;;;6.17;4.53;;;19.90;20.00;;;;;;5001936;28;46745;-42
2024/01/17 05:08:42;;;;;;;5.50;4.47;;;20.00;20.00;;;;;;5013609;28;45202;-41
2024/01/17 05:11:07;;;;;;;6.82;4.90;;;20.00;20.00;;;;;;4981260;28;46246;-41
2024/01/17 05:13:33;;;;;;;6.05;4.50;;;20.00;20.00;;;;;;5014984;28;44921;-41
2024/01/17 05:15:59;;;;;;;5.97;4.22;;;20.00;19.90;;;;;;4996897;28;45892;-41
2024/01/17 05:18:24;;;;;;;6.90;4.75;;;20.10;20.00;;;;;;5002223;28;45383;-43
2024/01/17 05:20:50;;;;;;;6.67;4.57;;;20.10;20.00;;;;;;4983328;28;45896;-42
2024/01/17 05:23:15;;;;;;;6.73;4.67;;;20.10;20.00;;;;;;5012006;28;45462;-42
2024/01/17 05:25:41;;;;;;;6.23;4.70;;;20.10;19.90;;;;;;5002802;28;45678;-45
2024/01/17 05:28:06;;;;;;;6.13;4.50;;;20.10;19.90;;;;;;5011677;28;45714;-41
2024/01/17 05:30:32;;;;;;;5.83;4.37;;;20.10;19.90;;;;;;4995010;28;45796;-42
2024/01/17 05:32:58;;;;;;;6.83;4.40;;;20.20;20.00;;;;;;5006264;28;45424;-45
2024/01/17 05:35:23;;;;;;;6.17;4.37;;;20.10;20.00;;;;;;4996031;28;45288;-41
2024/01/17 05:37:49;;;;;;;5.82;4.40;;;20.20;20.00;;;;;;5011334;28;45547;-42
2024/01/17 05:40:17;;;;;;;6.30;4.43;;;20.20;19.90;;;;;;5002221;28;65883;-42
2024/01/17 05:42:44;;;;;;;7.20;4.60;;;20.20;20.10;;;;;;4998985;28;44982;-42
2024/01/17 05:45:10;;;;;;;7.90;4.25;;;20.30;19.90;;;;;;5003300;28;46001;-41
2024/01/17 05:47:36;;;;;;;6.87;4.97;;;20.30;20.00;;;;;;5006401;28;45643;-43
2024/01/17 05:50:08;;;;;;;7.10;4.90;;;20.30;19.90;;;;;;5014438;28;46261;-42
2024/01/17 05:52:41;;;;;;;7.75;5.20;;;20.30;20.00;;;;;;4981927;28;45704;-42
2024/01/17 05:55:10;;;;;;;7.25;4.78;;;20.40;20.00;;;;;;4957202;28;46415;-41
2024/01/17 05:57:36;;;;;;;7.68;5.05;;;20.40;20.00;;;;;;4994456;28;45807;-41
2024/01/17 06:00:08;;;;;;;7.10;5.32;;;20.40;20.00;;;;;;5011857;28;45874;-42
2024/01/17 06:02:34;;;;;;;9.30;5.70;;;20.40;20.00;;;;;;4966866;28;45091;-46
2024/01/17 06:05:00;;;;;;;7.87;5.53;;;20.40;20.00;;;;;;5004324;28;45737;-47
2024/01/17 06:07:25;;;;;;;7.85;5.80;;;20.50;20.00;;;;;;4998305;28;45379;-45
2024/01/17 06:09:51;;;;;;;7.93;5.60;;;20.50;20.00;;;;;;5013179;28;45972;-46
2024/01/17 06:12:17;;;;;;;8.53;6.13;;;20.50;20.00;;;;;;4994702;28;45872;-46
2024/01/17 06:14:42;;;;;;;7.67;5.53;;;20.50;20.00;;;;;;5016391;28;45530;-44
2024/01/17 06:17:08;;;;;;;7.20;5.57;;;20.60;20.00;;;;;;4992979;28;46481;-44
2024/01/17 06:19:33;;;;;;;8.17;5.77;;;20.60;20.00;;;;;;5009983;28;46467;-42
2024/01/17 06:22:00;;;;;;;7.93;5.53;;;20.60;20.00;;;;;;4999597;28;45977;-42
2024/01/17 06:24:26;;;;;;;7.40;5.27;;;20.60;20.00;;;;;;5005761;28;47102;-43
2024/01/17 06:26:51;;;;;;;8.90;5.30;;;20.60;20.00;;;;;;4970506;28;45398;-42
2024/01/17 06:29:17;;;;;;;7.22;5.22;;;20.70;20.00;;;;;;5008091;28;45931;-42
2024/01/17 06:31:43;;;;;;;6.43;5.27;;;20.70;20.00;;;;;;4972160;28;46336;-43
2024/01/17 06:34:08;;;;;;;7.33;5.47;;;20.70;20.00;;;;;;5001790;28;45398;-41
2024/01/17 06:36:34;;;;;;;7.27;5.13;;;20.80;20.00;;;;;;4998224;28;45310;-42
2024/01/17 06:38:59;;;;;;;6.93;4.83;;;20.70;20.00;;;;;;5005821;28;45805;-42
2024/01/17 06:41:25;;;;;;;7.67;5.37;;;20.70;20.00;;;;;;4994752;28;44998;-42
2024/01/17 06:43:50;;;;;;;6.00;4.57;;;20.80;20.00;;;;;;5006829;28;45505;-42
2024/01/17 06:46:16;;;;;;;6.30;4.77;;;20.80;20.00;;;;;;4982091;28;45786;-42
2024/01/17 06:48:41;;;;;;;5.90;4.63;;;20.80;20.00;;;;;;5002377;28;46420;-42
2024/01/17 06:51:07;;;;;;;7.80;4.60;;;20.80;19.90;;;;;;4995131;28;45424;-44
2024/01/17 06:53:34;;;;;;;6.07;4.53;;;20.90;20.00;;;;;;5004090;28;46682;-42
2024/01/17 06:55:59;;;;;;;5.53;4.40;;;20.90;19.90;;;;;;4996060;28;46748;-42
2024/01/17 06:58:25;;;;;;;6.87;4.70;;;20.90;19.90;;;;;;5008773;28;46038;-41
2024/01/17 07:00:50;;;;;;;6.70;4.53;;;20.90;20.30;;;;;;4992413;28;45463;-42
2024/01/17 07:03:16;;;;;;;5.80;4.30;;;20.90;19.90;;;;;;5000831;28;45487;-44
2024/01/17 07:05:41;;;;;;;5.87;4.10;;;20.90;19.90;;;;;;4988247;28;46216;-43
2024/01/17 07:08:07;;;;;;;5.80;4.00;;;21.00;19.90;;;;;;5005677;28;47021;-43
2024/01/17 07:10:34;;;;;;;6.93;4.17;;;21.00;19.90;;;;;;4986438;28;45276;-41
2024/01/17 07:13:00;;;;;;;5.57;3.97;;;21.00;19.90;;;;;;5007140;28;45565;-41
2024/01/17 07:15:25;;;;;;;5.60;4.00;;;21.00;19.90;;;;;;4986795;28;46794;-42
2024/01/17 07:17:51;;;;;;;5.80;4.10;;;21.00;19.90;;;;;;4997075;28;45399;-41
2024/01/17 07:20:16;;;;;;;5.07;3.50;;;21.10;20.40;;;;;;4991863;28;45306;-41
2024/01/17 07:22:42;;;;;;;6.32;3.78;;;21.00;19.80;;;;;;5003014;28;45422;-42
2024/01/17 07:25:12;;;;;;;6.20;4.00;;;21.00;19.80;;;;;;5000376;28;45457;-41
2024/01/17 07:27:43;;;;;;;4.68;3.42;;;21.10;19.90;;;;;;4994799;28;47764;-44
2024/01/17 07:30:11;;;;;;;5.63;3.80;;;21.10;19.90;;;;;;4996194;28;45323;-47
2024/01/17 07:32:37;;;;;;;5.00;3.63;;;21.10;19.90;;;;;;4991805;28;45886;-44
2024/01/17 07:35:03;;;;;;;5.70;3.70;;;21.10;19.90;;;;;;5010017;28;45917;-46
2024/01/17 07:37:29;;;;;;;5.00;4.03;;;21.10;19.90;;;;;;4984739;28;46036;-47
2024/01/17 07:39:54;;;;;;;4.47;3.17;;;21.10;19.90;;;;;;5014389;28;45907;-44
2024/01/17 07:42:21;;;;;;;4.22;3.35;;;21.10;19.90;;;;;;4997054;28;46020;-41
2024/01/17 07:44:47;;;;;;;5.15;3.58;;;21.10;19.90;;;;;;5012793;28;44779;-41
2024/01/17 07:47:12;;;;;;;4.93;3.40;;;21.10;19.90;;;;;;4991744;28;45905;-44
2024/01/17 07:49:38;;;;;;;4.53;3.30;;;21.10;19.90;;;;;;5006266;28;45470;-40
2024/01/17 07:52:05;;;;;;;4.30;3.38;;;21.10;19.90;;;;;;5000432;28;46085;-42
2024/01/17 07:54:31;;;;;;;4.20;3.47;;;21.20;19.90;;;;;;5007181;28;45940;-40
2024/01/17 07:56:56;;;;;;;4.00;3.33;;;21.10;19.90;;;;;;5000881;28;45046;-42
2024/01/17 07:59:22;;;;;;;3.93;3.07;;;21.20;19.90;;;;;;5002975;28;46212;-40
2024/01/17 08:01:49;;;;;;;4.10;3.30;;;21.20;19.90;;;;;;4986485;28;45345;-40
2024/01/17 08:04:16;;;;;;;4.63;3.40;;;21.20;19.90;;;;;;5008956;28;45829;-39
2024/01/17 08:06:43;;;;;;;5.10;3.60;;;21.10;19.90;;;;;;4994218;28;46089;-40
2024/01/17 08:09:20;;;;;;;4.40;3.20;;;21.20;19.90;;;;;;5010830;28;45860;-40
2024/01/17 08:11:53;;;;;;;4.20;3.30;;;21.20;19.90;;;;;;5002149;28;45097;-42
2024/01/17 08:14:19;;;;;;;4.07;3.27;;;21.10;19.90;;;;;;5001421;28;45881;-41
2024/01/17 08:16:45;;;;;;;3.63;3.17;;;21.10;19.90;;;;;;4987091;28;45814;-40
2024/01/17 08:19:11;;;;;;;4.57;3.40;;;21.20;19.90;;;;;;5010436;28;45572;-40
2024/01/17 08:21:36;;;;;;;4.90;3.60;;;21.20;19.90;;;;;;4994364;28;45898;-40
2024/01/17 08:24:02;;;;;;;4.97;3.80;;;21.20;20.00;;;;;;5008243;28;47007;-39
2024/01/17 08:26:28;;;;;;;3.63;3.17;;;21.20;19.90;;;;;;4994043;28;46814;-40
2024/01/17 08:28:54;;;;;;;3.67;3.27;;;21.20;20.00;;;;;;5008388;28;45898;-40
2024/01/17 08:31:20;;;;;;;4.20;3.33;;;21.20;20.00;;;;;;4970599;28;45502;-40
2024/01/17 08:33:45;;;;;;;3.70;3.25;;;21.20;20.10;;;;;;5005204;28;46038;-40
2024/01/17 08:36:12;;;;;;;4.40;3.40;;;21.20;20.00;;;;;;4988366;28;47929;-41
2024/01/17 08:38:37;;;;;;;4.22;3.40;;;21.20;20.00;;;;;;5007345;28;45678;-41
2024/01/17 08:41:03;;;;;;;4.05;3.10;;;21.20;20.00;;;;;;5002165;28;46075;-40
2024/01/17 08:43:29;;;;;;;4.80;3.60;;;21.20;20.10;;;;;;5004994;28;45573;-43
2024/01/17 08:45:55;;;;;;;4.23;3.20;;;21.20;20.10;;;;;;4985694;28;46524;-40
2024/01/17 08:48:20;;;;;;;4.00;3.43;;;21.20;20.10;;;;;;5006457;28;45845;-41
2024/01/17 08:50:46;;;;;;;4.13;3.33;;;21.10;20.10;;;;;;4997001;28;46166;-40
2024/01/17 08:53:11;;;;;;;3.72;3.35;;;21.20;20.20;;;;;;5005170;28;45144;-43
2024/01/17 08:55:37;;;;;;;4.20;3.08;;;21.20;20.20;;;;;;4989456;28;46230;-43
2024/01/17 08:58:02;;;;;;;3.60;3.17;;;21.20;20.20;;;;;;5004562;28;47681;-40
2024/01/17 09:00:28;;;;;;;4.47;3.28;;;21.10;20.20;;;;;;4959475;28;46027;-40
2024/01/17 09:02:54;;;;;;;3.53;3.20;;;21.20;20.20;;;;;;4998270;28;45349;-42
2024/01/17 09:05:20;;;;;;;4.03;3.27;;;21.10;20.20;;;;;;4991747;28;45323;-40
2024/01/17 09:07:48;;;;;;;3.55;3.15;;;21.20;20.30;;;;;;5002360;28;45908;-42
2024/01/17 09:10:14;;;;;;;4.13;3.20;;;21.20;20.30;;;;;;5001541;28;45790;-41
2024/01/17 09:12:40;;;;;;;3.72;3.22;;;21.20;20.30;;;;;;4999984;28;46157;-41
2024/01/17 09:15:06;;;;;;;4.00;3.30;;;21.20;20.30;;;;;;5000011;28;45296;-40
2024/01/17 09:17:32;;;;;;;3.45;2.90;;;21.20;20.30;;;;;;4961630;28;45531;-40
2024/01/17 09:19:57;;;;;;;3.75;3.30;;;21.20;20.40;;;;;;5007878;28;45236;-43
2024/01/17 09:22:23;;;;;;;3.40;2.83;;;21.20;20.40;;;;;;5000587;28;45537;-41
2024/01/17 09:24:49;;;;;;;4.83;3.23;;;21.20;20.40;;;;;;5003315;28;46619;-40
2024/01/17 09:27:14;;;;;;;4.50;3.00;;;21.20;20.40;;;;;;4996332;28;46942;-40
2024/01/17 09:29:40;;;;;;;4.40;3.20;;;21.10;20.40;;;;;;5002241;28;45415;-41
2024/01/17 09:32:06;;;;;;;3.70;3.20;;;21.10;20.40;;;;;;4990583;28;46025;-40
2024/01/17 09:34:34;;;;;;;4.00;3.08;;;21.10;20.40;;;;;;5001076;28;46294;-40
2024/01/17 09:37:02;;;;;;;3.67;3.25;;;21.10;20.40;;;;;;4993101;28;44990;-41
2024/01/17 09:39:28;;;;;;;3.28;2.80;;;21.20;20.50;;;;;;5004724;28;45554;-41
2024/01/17 09:41:54;;;;;;;3.40;3.03;;;21.20;20.60;;;;;;4997967;28;45866;-42
2024/01/17 09:44:20;;;;;;;3.95;3.38;;;21.10;20.50;;;;;;5011354;28;46193;-41
2024/01/17 09:46:45;;;;;;;4.50;3.30;;;21.10;20.50;;;;;;4982679;28;45909;-40
2024/01/17 09:49:11;;;;;;;4.40;3.37;;;21.10;20.50;;;;;;5005400;28;46762;-43
2024/01/17 09:51:36;;;;;;;3.97;2.73;;;21.10;20.50;;;;;;4995160;28;45852;-40
2024/01/17 09:54:05;;;;;;;3.87;3.23;;;21.10;20.60;;;;;;5010477;28;45393;-41
2024/01/17 09:56:31;;;;;;;3.40;2.77;;;21.10;20.60;;;;;;4991402;28;45557;-40
2024/01/17 09:58:57;;;;;;;3.90;3.35;;;21.10;20.60;;;;;;5009360;28;45547;-41
2024/01/17 10:01:23;;;;;;;3.90;3.00;;;21.10;20.60;;;;;;4968955;28;45282;-42
2024/01/17 10:03:48;;;;;;;4.15;3.15;;;21.10;20.70;;;;;;4982143;28;45941;-41
2024/01/17 10:06:15;;;;;;;3.83;3.00;;;21.10;20.70;;;;;;4996931;28;45927;-41
2024/01/17 10:08:41;;;;;;;3.47;3.00;;;21.10;20.70;;;;;;5000529;28;48473;-41
2024/01/17 10:11:06;;;;;;;4.43;3.40;;;21.10;20.80;;;;;;4982817;28;46010;-40
2024/01/17 10:13:32;;;;;;;4.30;3.15;;;21.10;20.80;;;;;;5004974;28;46112;-41
2024/01/17 10:15:59;;;;;;;4.00;3.15;;;21.10;20.80;;;;;;4971972;28;45877;-40
2024/01/17 10:18:24;;;;;;;4.07;3.10;;;21.10;20.80;;;;;;5003551;28;45347;-41
2024/01/17 10:20:50;;;;;;;3.60;3.07;;;21.00;20.80;;;;;;4990616;28;46014;-40
2024/01/17 10:23:16;;;;;;;3.83;3.03;;;21.10;20.90;;;;;;5005670;28;46810;-41
2024/01/17 10:25:41;;;;;;;4.13;2.93;;;21.10;20.90;;;;;;4990907;28;45337;-41
2024/01/17 10:28:07;;;;;;;3.20;2.90;;;21.10;20.90;;;;;;5011981;28;45835;-40
2024/01/17 10:30:36;;;;;;;3.60;2.80;;;21.10;20.90;;;;;;4986068;28;45478;-40
2024/01/17 10:33:02;;;;;;;3.20;2.80;;;21.00;20.90;;;;;;5004542;28;46162;-42
2024/01/17 10:35:28;;;;;;;3.00;2.70;;;21.00;20.90;;;;;;4978367;28;45796;-40
2024/01/17 10:37:54;;;;;;;2.83;2.55;;;21.00;21.00;;;;;;5008710;28;46002;-40
2024/01/17 10:40:20;;;;;;;3.42;2.72;;;21.00;21.00;;;;;;5004908;28;45892;-41
2024/01/17 10:42:45;;;;;;;3.78;2.90;;;21.00;21.00;;;;;;5007258;28;46659;-41
2024/01/17 10:45:20;;;;;;;4.43;3.08;;;21.00;21.00;;;;;;5005231;28;45490;-41
2024/01/17 10:47:46;;;;;;;3.77;3.20;;;21.00;21.00;;;;;;5005383;28;45248;-42
2024/01/17 10:50:12;;;;;;;3.55;2.90;;;21.00;21.10;;;;;;5009272;28;45940;-42
2024/01/17 10:52:40;;;;;;;3.60;3.17;;;21.00;21.10;;;;;;5001791;28;45919;-41
2024/01/17 10:55:07;;;;;;;4.32;2.65;;;21.00;21.10;;;;;;5008741;28;45203;-40
2024/01/17 10:57:36;;;;;;;3.60;2.83;;;21.00;21.10;;;;;;5008539;28;45418;-43
2024/01/17 11:00:03;;;;;;;3.10;2.80;;;21.00;21.10;;;;;;4992219;28;45544;-40
2024/01/17 11:02:29;;;;;;;3.40;2.60;;;21.00;21.20;;;;;;4996566;28;46028;-41
2024/01/17 11:04:57;;;;;;;3.53;2.80;;;21.00;21.20;;;;;;5002287;28;45551;-42
2024/01/17 11:07:23;;;;;;;3.13;2.60;;;21.00;21.20;;;;;;5003368;28;45340;-41
2024/01/17 11:09:49;;;;;;;4.10;2.73;;;21.00;21.20;;;;;;5006846;28;45352;-42
2024/01/17 11:12:14;;;;;;;3.40;2.73;;;21.00;21.30;;;;;;5006206;28;45396;-40
2024/01/17 11:14:41;;;;;;;3.80;2.80;;;21.00;21.30;;;;;;5008996;28;46366;-40
2024/01/17 11:17:06;;;;;;;3.20;2.63;;;21.00;21.30;;;;;;4992387;28;45573;-41
2024/01/17 11:19:32;;;;;;;3.47;2.80;;;20.90;21.30;;;;;;5006317;28;45749;-43
2024/01/17 11:21:59;;;;;;;3.03;2.53;;;21.00;21.40;;;;;;4995823;28;45337;-40
2024/01/17 11:24:47;;;;;;;2.83;2.50;;;20.90;21.30;;;;;;5009171;28;45388;-39
2024/01/17 11:27:42;;;;;;;3.05;2.70;;;20.90;21.30;;;;;;5004878;28;45448;-41
2024/01/17 11:30:31;;;;;;;3.17;2.55;;;20.90;21.40;;;;;;5003825;28;46158;-41
2024/01/17 11:33:10;;;;;;;2.75;2.53;;;20.90;21.40;;;;;;5005720;28;45598;-42
2024/01/17 11:35:46;;;;;;;3.72;2.90;;;20.90;21.40;;;;;;4999984;28;45296;-40
2024/01/17 11:38:24;;;;;;;3.07;2.70;;;20.90;21.50;;;;;;5017794;28;45028;-41
2024/01/17 11:40:52;;;;;;;3.25;2.70;;;20.90;21.50;;;;;;4993618;28;46036;-41
2024/01/17 11:43:18;;;;;;;3.30;2.60;;;20.90;21.50;;;;;;5013018;28;45996;-41
2024/01/17 11:45:43;;;;;;;2.70;2.50;;;20.90;21.50;;;;;;4988456;28;46549;-40
2024/01/17 11:48:19;;;;;;;3.35;2.58;;;20.90;21.60;;;;;;5006782;28;46014;-40
2024/01/17 11:51:06;;;;;;;2.78;2.50;;;20.90;21.50;;;;;;4995969;28;45443;-39
2024/01/17 11:53:33;;;;;;;2.67;2.47;;;20.90;21.60;;;;;;5011108;28;45941;-40
2024/01/17 11:56:05;;;;;;;2.93;2.47;;;20.90;21.60;;;;;;4975954;28;45522;-41
2024/01/17 11:58:46;;;;;;;2.92;2.60;;;20.90;21.70;;;;;;5011516;28;45679;-40
2024/01/17 12:01:12;;;;;;;2.90;2.58;;;20.90;21.60;;;;;;4989982;28;46085;-43
2024/01/17 12:03:39;;;;;;;2.80;2.23;;;20.90;21.70;;;;;;5008194;28;45289;-42
2024/01/17 12:06:05;;;;;;;3.10;2.40;;;20.90;21.70;;;;;;4995435;28;47649;-42
2024/01/17 12:08:31;;;;;;;3.35;2.45;;;20.80;21.70;;;;;;5011390;28;45269;-40
2024/01/17 12:10:56;;;;;;;2.97;2.00;;;20.80;21.70;;;;;;4993705;28;47010;-42
2024/01/17 12:13:23;;;;;;;2.45;2.25;;;20.80;21.70;;;;;;5008993;28;46473;-42
2024/01/17 12:15:54;;;;;;;2.28;2.08;;;20.80;21.70;;;;;;4987537;28;45990;-40
2024/01/17 12:18:20;;;;;;;2.50;2.13;;;20.80;21.80;;;;;;5006006;28;45421;-41
2024/01/17 12:20:48;;;;;;;2.17;1.98;;;20.80;21.80;;;;;;4997726;28;45856;-41
2024/01/17 12:23:14;;;;;;;2.35;2.05;;;20.80;21.80;;;;;;5006054;28;45283;-41
2024/01/17 12:25:39;;;;;;;3.25;2.20;;;20.80;21.80;;;;;;4994506;28;45915;-40
2024/01/17 12:28:05;;;;;;;2.63;1.92;;;20.80;21.90;;;;;;5004657;28;45831;-42
2024/01/17 12:30:31;;;;;;;2.30;2.10;;;20.80;21.90;;;;;;4991009;28;46110;-40
2024/01/17 12:32:56;;;;;;;2.65;1.98;;;20.80;21.90;;;;;;4996487;28;45426;-42
2024/01/17 12:35:22;;;;;;;3.45;2.00;;;20.70;21.80;;;;;;4992198;28;45904;-40
2024/01/17 12:37:48;;;;;;;2.30;2.00;;;20.80;21.90;;;;;;5003611;28;45488;-40
2024/01/17 12:40:14;;;;;;;2.28;1.77;;;20.80;22.00;;;;;;4991218;28;45878;-40
2024/01/17 12:42:40;;;;;;;2.10;1.90;;;20.80;22.00;;;;;;4999179;28;45700;-41
2024/01/17 12:45:06;;;;;;;2.20;1.70;;;20.80;22.00;;;;;;4992594;28;45817;-40
2024/01/17 12:47:31;;;;;;;2.20;1.75;;;20.80;22.00;;;;;;4977785;28;46664;-41
2024/01/17 12:49:57;;;;;;;1.90;1.70;;;20.70;22.00;;;;;;4982761;28;45289;-41
2024/01/17 12:52:23;;;;;;;2.07;1.83;;;20.70;22.10;;;;;;4990338;28;45524;-40
2024/01/17 12:54:48;;;;;;;1.90;1.70;;;20.70;22.10;;;;;;5001905;28;45925;-42
2024/01/17 12:57:14;;;;;;;2.00;1.80;;;20.70;22.10;;;;;;4988552;28;45573;-42
2024/01/17 12:59:40;;;;;;;2.95;2.00;;;20.70;22.20;;;;;;4991884;28;46019;-40
2024/01/17 13:02:14;;;;;;;1.63;1.48;;;20.70;22.20;;;;;;4976621;28;45630;-44
2024/01/17 13:04:39;;;;;;;1.88;1.70;;;20.70;22.20;;;;;;5011132;28;45555;-40
2024/01/17 13:07:05;;;;;;;1.50;1.40;;;20.70;22.20;;;;;;4995565;28;45844;-42
2024/01/17 13:09:31;;;;;;;1.63;1.53;;;20.70;22.20;;;;;;5009563;28;45295;-42
2024/01/17 13:11:57;;;;;;;1.70;1.40;;;20.70;22.20;;;;;;4992921;28;48114;-48
2024/01/17 13:14:26;;;;;;;2.13;1.60;;;20.70;22.30;;;;;;5009040;28;45362;-40
2024/01/17 13:16:53;;;;;;;1.55;1.45;;;20.70;22.30;;;;;;4972119;28;45983;-40
2024/01/17 13:19:19;;;;;;;1.60;1.42;;;20.70;22.30;;;;;;5007788;28;45356;-41
2024/01/17 13:21:47;;;;;;;1.90;1.40;;;20.70;22.30;;;;;;4999733;28;46797;-41
2024/01/17 13:24:13;;;;;;;1.50;1.40;;;20.60;22.30;;;;;;4997635;28;46777;-41
2024/01/17 13:26:38;;;;;;;1.70;1.60;;;20.60;22.30;;;;;;4996012;28;45504;-41
2024/01/17 13:29:04;;;;;;;1.90;1.50;;;20.60;22.30;;;;;;5004062;28;45319;-39
2024/01/17 13:31:31;;;;;;;1.50;1.40;;;20.60;22.40;;;;;;4982410;28;46165;-40
2024/01/17 13:33:58;;;;;;;1.77;1.40;;;20.60;22.40;;;;;;4997530;28;46249;-41
2024/01/17 13:36:27;;;;;;;1.50;1.40;;;20.60;22.40;;;;;;4981746;28;45648;-40
2024/01/17 13:38:53;;;;;;;1.50;1.40;;;20.60;22.50;;;;;;5000629;28;46484;-41
2024/01/17 13:41:21;;;;;;;1.70;1.60;;;20.60;22.50;;;;;;4994992;28;45218;-40
2024/01/17 13:43:47;;;;;;;1.52;1.42;;;20.60;22.50;;;;;;5006182;28;45933;-41
2024/01/17 13:46:13;;;;;;;2.28;1.50;;;20.60;22.50;;;;;;4985395;28;44889;-41
2024/01/17 13:48:39;;;;;;;1.87;1.40;;;20.60;22.50;;;;;;4995314;28;45876;-42
2024/01/17 13:51:04;;;;;;;2.07;1.47;;;20.60;22.50;;;;;;4981731;28;46659;-40
2024/01/17 13:53:36;;;;;;;1.50;1.30;;;20.60;22.60;;;;;;5005663;28;45449;-41
2024/01/17 13:56:05;;;;;;;1.60;1.50;;;20.60;22.60;;;;;;4995163;28;45877;-40
2024/01/17 13:58:32;;;;;;;1.70;1.45;;;20.60;22.60;;;;;;5009484;28;45707;-41
2024/01/17 14:00:59;;;;;;;1.70;1.20;;;20.60;22.70;;;;;;4986305;28;45411;-40
2024/01/17 14:03:25;;;;;;;1.40;1.30;;;20.50;22.70;;;;;;4993364;28;47255;-40
2024/01/17 14:05:51;;;;;;;1.38;1.27;;;20.50;22.70;;;;;;4987860;28;45458;-41
2024/01/17 14:08:17;;;;;;;1.60;1.30;;;20.50;22.70;;;;;;4999636;28;46147;-42
2024/01/17 14:10:42;;;;;;;1.30;1.20;;;20.50;22.70;;;;;;4992785;28;46815;-42
2024/01/17 14:13:08;;;;;;;1.67;1.40;;;20.50;22.70;;;;;;4999998;28;46189;-41
2024/01/17 14:15:33;;;;;;;2.20;1.42;;;20.50;22.80;;;;;;4975788;28;45781;-40
2024/01/17 14:17:59;;;;;;;1.30;1.20;;;20.50;23.30;;;;;;4994998;28;45764;-40
2024/01/17 14:20:25;;;;;;;1.80;1.40;;;20.50;22.80;;;;;;4985858;28;46405;-40
2024/01/17 14:22:53;;;;;;;2.67;1.55;;;20.50;22.90;;;;;;5002865;28;45276;-42
2024/01/17 14:25:18;;;;;;;1.67;1.40;;;20.50;22.80;;;;;;4988524;28;46407;-41
2024/01/17 14:27:44;;;;;;;1.67;1.40;;;20.50;22.90;;;;;;4999666;28;46348;-46
2024/01/17 14:30:13;;;;;;;2.20;1.42;;;20.50;22.90;;;;;;4982842;28;46858;-44
2024/01/17 14:32:39;;;;;;;2.17;1.65;;;20.50;22.90;;;;;;4995321;28;45739;-42
2024/01/17 14:35:07;;;;;;;1.50;1.38;;;20.50;22.90;;;;;;4989936;28;45878;-42
2024/01/17 14:37:34;;;;;;;1.52;1.42;;;20.50;23.00;;;;;;5002991;28;47122;-42
2024/01/17 14:40:00;;;;;;;1.83;1.50;;;20.50;23.00;;;;;;5007006;28;45513;-42
2024/01/17 14:42:26;;;;;;;1.87;1.37;;;20.40;23.00;;;;;;4994422;28;46008;-42
2024/01/17 14:44:51;;;;;;;1.30;1.20;;;20.50;23.00;;;;;;5009321;28;45418;-44
2024/01/17 14:47:17;;;;;;;1.97;1.40;;;20.40;23.00;;;;;;4984249;28;45189;-43
2024/01/17 14:49:42;;;;;;;1.53;1.43;;;20.40;23.10;;;;;;5009447;28;45445;-43
2024/01/17 14:52:08;;;;;;;2.07;1.30;;;20.40;23.10;;;;;;4993393;28;45663;-43
2024/01/17 14:54:34;;;;;;;1.77;1.30;;;20.40;23.10;;;;;;5006861;28;45938;-42
2024/01/17 14:57:04;;;;;;;1.73;1.38;;;20.40;23.10;;;;;;4998914;28;44940;-46
2024/01/17 14:59:30;;;;;;;1.80;1.43;;;20.40;23.10;;;;;;5008392;28;46543;-46
2024/01/17 15:01:55;;;;;;;1.55;1.38;;;20.40;23.20;;;;;;4989508;28;45786;-43
2024/01/17 15:04:21;;;;;;;2.10;1.63;;;20.40;23.20;;;;;;5002749;28;44741;-43
2024/01/17 15:06:46;;;;;;;1.35;1.25;;;20.40;23.20;;;;;;4974000;28;45523;-42
2024/01/17 15:09:16;;;;;;;2.88;1.40;;;20.40;23.30;;;;;;5000246;28;46019;-46
2024/01/17 15:11:45;;;;;;;3.00;1.40;;;20.30;23.30;;;;;;4995323;28;45979;-43
2024/01/17 15:14:11;;;;;;;2.40;1.50;;;20.40;23.40;;;;;;5006242;28;45555;-42
2024/01/17 15:16:37;;;;;;;1.83;1.47;;;20.30;23.40;;;;;;4988690;28;45494;-44
2024/01/17 15:19:03;;;;;;;2.93;1.60;;;20.30;23.50;;;;;;5009764;28;45675;-43
2024/01/17 15:21:30;;;;;;;1.63;1.52;;;20.30;23.50;;;;;;4996832;28;45896;-46
2024/01/17 15:23:55;;;;;;;1.92;1.70;;;20.30;23.50;;;;;;5010167;28;45647;-45
2024/01/17 15:26:21;;;;;;;2.03;1.37;;;20.30;23.60;;;;;;4994389;28;47753;-44
2024/01/17 15:28:46;;;;;;;1.80;1.70;;;20.30;23.60;;;;;;5012392;28;45551;-45
2024/01/17 15:31:13;;;;;;;2.40;1.70;;;20.30;23.70;;;;;;4982121;28;45929;-44
2024/01/17 15:33:38;;;;;;;2.50;1.40;;;20.30;23.70;;;;;;5008869;28;46466;-43
2024/01/17 15:36:05;;;;;;;1.70;1.60;;;20.30;23.90;;;;;;4993427;28;45830;-44
2024/01/17 15:38:32;;;;;;;1.70;1.60;;;20.30;23.80;;;;;;5002670;28;45396;-44
2024/01/17 15:41:00;;;;;;;1.87;1.67;;;20.30;23.80;;;;;;5000680;28;46079;-42
2024/01/17 15:43:26;;;;;;;1.70;1.60;;;20.30;23.90;;;;;;5005297;28;45484;-44
2024/01/17 15:45:52;;;;;;;1.60;1.50;;;20.30;23.90;;;;;;4993598;28;45893;-43
2024/01/17 15:48:21;;;;;;;1.63;1.52;;;20.40;23.90;;;;;;5005924;28;46526;-44
2024/01/17 15:50:47;;;;;;;1.63;1.42;;;20.40;24.00;;;;;;5001496;28;45224;-42
2024/01/17 15:53:13;;;;;;;1.52;1.40;;;20.40;24.00;;;;;;5008791;28;45340;-43
2024/01/17 15:55:40;;;;;;;1.65;1.55;;;20.40;24.00;;;;;;4992885;28;45948;-45
2024/01/17 15:58:06;;;;;;;1.97;1.50;;;20.40;24.00;;;;;;5010619;28;45322;-42
2024/01/17 16:00:32;;;;;;;1.60;1.50;;;20.40;24.00;;;;;;4988909;28;45846;-42
2024/01/17 16:02:57;;;;;;;1.83;1.37;;;20.40;24.10;;;;;;5006287;28;46012;-43
2024/01/17 16:05:23;;;;;;;2.23;1.70;;;20.40;24.10;;;;;;4994293;28;45259;-44
2024/01/17 16:07:48;;;;;;;1.30;1.20;;;20.40;24.20;;;;;;5011522;28;45843;-44
2024/01/17 16:10:14;;;;;;;1.60;1.37;;;20.50;24.20;;;;;;4998999;28;45789;-43
2024/01/17 16:12:41;;;;;;;1.47;1.37;;;20.50;24.30;;;;;;5008986;28;46091;-42
2024/01/17 16:15:10;;;;;;;1.53;1.40;;;20.50;24.30;;;;;;5005509;28;45167;-43
2024/01/17 16:17:35;;;;;;;1.65;1.30;;;20.50;24.30;;;;;;4975879;28;46628;-44
2024/01/17 16:20:01;;;;;;;1.80;1.50;;;20.50;24.30;;;;;;5010346;28;45729;-43
2024/01/17 16:22:27;;;;;;;2.00;1.60;;;20.50;24.30;;;;;;4997399;28;45550;-43
2024/01/17 16:24:52;;;;;;;1.53;1.40;;;20.60;24.40;;;;;;5003594;28;45756;-43
2024/01/17 16:27:18;;;;;;;1.90;1.50;;;20.60;24.40;;;;;;4995944;28;46190;-42
2024/01/17 16:29:44;;;;;;;1.48;1.38;;;20.60;24.40;;;;;;5011885;28;45459;-43
2024/01/17 16:32:09;;;;;;;1.50;1.40;;;20.60;24.40;;;;;;4993119;28;45901;-43
2024/01/17 16:34:39;;;;;;;1.45;1.35;;;20.60;24.50;;;;;;5006758;28;47474;-48
2024/01/17 16:37:04;;;;;;;1.55;1.40;;;20.60;24.50;;;;;;4998143;28;45268;-44
2024/01/17 16:39:32;;;;;;;2.00;1.50;;;20.70;24.50;;;;;;5004609;28;45025;-46
2024/01/17 16:41:57;;;;;;;2.15;1.35;;;20.70;24.50;;;;;;5003443;28;45823;-44
2024/01/17 16:44:23;;;;;;;1.60;1.45;;;20.70;24.50;;;;;;5007328;28;46553;-43
2024/01/17 16:46:48;;;;;;;1.50;1.30;;;20.70;24.60;;;;;;4996035;28;45679;-42
2024/01/17 16:49:15;;;;;;;1.80;1.50;;;20.70;24.60;;;;;;5012552;28;46644;-43